createdAt,value
2019-05-03T00:04:19.885Z,7.5
2019-05-03T00:09:42.718Z,8.3
2019-05-03T00:15:05.402Z,7.1
2019-05-03T00:20:28.176Z,7.7
2019-05-03T00:25:52.311Z,7.6
2019-05-03T00:31:14.445Z,7.9
2019-05-03T00:36:38.075Z,7.9
2019-05-03T00:42:02.384Z,7.8
2019-05-03T00:47:25.463Z,7.4
2019-05-03T00:52:49.090Z,6
2019-05-03T00:58:11.914Z,6.6
2019-05-03T01:03:35.212Z,6.5
2019-05-03T01:08:57.903Z,6.6
2019-05-03T01:14:22.222Z,6.7
2019-05-03T01:19:45.230Z,6.7
2019-05-03T01:25:07.877Z,6.2
2019-05-03T01:30:32.038Z,5.8
2019-05-03T01:35:54.236Z,6.1
2019-05-03T01:41:17.956Z,6
2019-05-03T01:46:42.143Z,6.2
2019-05-03T01:52:04.253Z,6
2019-05-03T01:57:26.914Z,5.3
2019-05-03T02:02:49.599Z,5.6
2019-05-03T02:08:12.602Z,4.8
2019-05-03T02:13:34.913Z,4.9
2019-05-03T02:18:57.628Z,4.6
2019-05-03T02:24:22.054Z,4.6
2019-05-03T02:29:44.286Z,4.7
2019-05-03T02:35:07.568Z,4.6
2019-05-03T02:40:30.292Z,4.7
2019-05-03T02:45:52.953Z,4
2019-05-03T02:51:15.866Z,3.8
2019-05-03T02:56:38.291Z,4.3
2019-05-03T03:02:01.000Z,4.1
2019-05-03T03:07:25.802Z,4.6
2019-05-03T03:12:48.294Z,4.2
2019-05-03T03:18:10.916Z,4.1
2019-05-03T03:23:35.470Z,4.5
2019-05-03T03:28:57.328Z,3.4
2019-05-03T03:34:20.030Z,4.3
2019-05-03T03:39:45.540Z,3.6
2019-05-03T03:45:06.951Z,3.2
2019-05-03T03:50:29.603Z,3.1
2019-05-03T03:55:52.583Z,3
2019-05-03T04:01:15.731Z,3.2
2019-05-03T04:06:37.883Z,3.1
2019-05-03T04:12:01.197Z,2.9
2019-05-03T04:17:26.000Z,3.3
2019-05-03T04:22:48.314Z,3.3
2019-05-03T04:28:10.993Z,3.8
2019-05-03T04:33:35.847Z,3.7
2019-05-03T04:38:56.431Z,4.6
2019-05-03T04:44:19.805Z,3.7
2019-05-03T04:49:42.531Z,4.3
2019-05-03T04:55:06.532Z,4.1
2019-05-03T05:00:29.064Z,3.5
2019-05-03T05:05:51.823Z,4.1
2019-05-03T05:11:15.705Z,3.5
2019-05-03T05:16:39.744Z,3.8
2019-05-03T05:22:03.816Z,2.7
2019-05-03T05:27:25.872Z,2.8
2019-05-03T05:32:48.445Z,2.7
2019-05-03T05:38:11.145Z,2.7
2019-05-03T05:43:35.525Z,2.3
2019-05-03T05:48:57.433Z,2.7
2019-05-03T05:54:20.091Z,2.8
2019-05-03T05:59:42.757Z,3.2
2019-05-03T06:05:05.347Z,2.9
2019-05-03T06:10:28.017Z,2.7
2019-05-03T06:15:51.650Z,2.6
2019-05-03T06:21:14.806Z,2.8
2019-05-03T06:26:37.023Z,2.9
2019-05-03T06:32:00.659Z,2.7
2019-05-03T06:37:24.993Z,2.1
2019-05-03T06:42:54.070Z,2
2019-05-03T06:48:11.567Z,2.7
2019-05-03T06:53:34.588Z,1.9
2019-05-03T06:58:56.881Z,2.1
2019-05-03T07:04:19.492Z,2.6
2019-05-03T07:09:42.115Z,2.4
2019-05-03T07:15:05.205Z,2.7
2019-05-03T07:20:27.368Z,2.5
2019-05-03T07:25:50.232Z,2.4
2019-05-03T07:31:14.631Z,2
2019-05-03T07:36:36.480Z,2.5
2019-05-03T07:41:59.074Z,2.2
2019-05-03T07:47:21.831Z,2.2
2019-05-03T07:52:45.451Z,1.8
2019-05-03T07:58:08.224Z,2.3
2019-05-03T08:03:31.540Z,2.3
2019-05-03T08:08:54.574Z,2.1
2019-05-03T08:14:18.209Z,2.3
2019-05-03T08:19:40.486Z,2
2019-05-03T08:25:05.317Z,1.9
2019-05-03T08:30:27.029Z,1.6
2019-05-03T08:35:51.073Z,1.8
2019-05-03T08:41:14.492Z,1.5
2019-05-03T08:46:36.362Z,1.7
2019-05-03T08:51:59.098Z,1.7
2019-05-03T08:57:21.722Z,1.3
2019-05-03T09:02:44.802Z,1.7
2019-05-03T09:08:06.995Z,1.8
2019-05-03T09:13:30.139Z,1.5
2019-05-03T09:18:54.743Z,1.7
2019-05-03T09:24:16.438Z,1.7
2019-05-03T09:29:43.049Z,1.7
2019-05-03T09:35:02.716Z,1.9
2019-05-03T09:40:25.386Z,1.7
2019-05-03T09:45:48.090Z,1.9
2019-05-03T09:51:10.811Z,1.7
2019-05-03T09:56:34.588Z,1.4
2019-05-03T10:01:57.302Z,1.4
2019-05-03T10:07:19.937Z,1.4
2019-05-03T10:12:42.588Z,1.2
2019-05-03T10:18:10.144Z,1.3
2019-05-03T10:23:29.476Z,1.5
2019-05-03T10:28:52.155Z,1.4
2019-05-03T10:34:15.507Z,1.9
2019-05-03T10:39:37.378Z,1.7
2019-05-03T10:44:59.983Z,1.6
2019-05-03T10:50:24.990Z,1.5
2019-05-03T10:55:46.371Z,1.3
2019-05-03T11:01:09.021Z,1.6
2019-05-03T11:06:31.719Z,1.6
2019-05-03T11:11:55.477Z,1.5
2019-05-03T11:17:17.049Z,1.5
2019-05-03T11:22:39.622Z,1.8
2019-05-03T11:28:02.303Z,1.3
2019-05-03T11:33:24.902Z,1.5
2019-05-03T11:38:47.558Z,1.6
2019-05-03T11:44:10.181Z,1.4
2019-05-03T11:49:34.475Z,1.6
2019-05-03T11:54:56.687Z,1.5
2019-05-03T12:00:19.344Z,1.7
2019-05-03T12:05:42.000Z,1.5
2019-05-03T12:11:05.719Z,2
2019-05-03T12:17:07.591Z,1.6
2019-05-03T12:21:52.502Z,2
2019-05-03T12:27:15.045Z,1.8
2019-05-03T12:32:37.397Z,2
2019-05-03T12:38:00.038Z,2
2019-05-03T12:43:21.655Z,1.9
2019-05-03T12:48:44.780Z,1.9
2019-05-03T12:54:07.688Z,2.1
2019-05-03T12:59:30.310Z,1.8
2019-05-03T13:04:52.967Z,1.9
2019-05-03T13:10:21.568Z,2
2019-05-03T13:15:39.169Z,1.8
2019-05-03T13:21:01.790Z,1.9
2019-05-03T13:26:25.393Z,2
2019-05-03T13:31:58.044Z,2
2019-05-03T13:37:11.097Z,2.6
2019-05-03T13:42:35.007Z,2.2
2019-05-03T13:47:57.669Z,2.1
2019-05-03T13:53:21.978Z,1.9
2019-05-03T13:58:44.718Z,2
2019-05-03T14:04:07.273Z,1.9
2019-05-03T14:09:30.625Z,2.2
2019-05-03T14:14:55.733Z,2.2
2019-05-03T14:20:16.874Z,2.4
2019-05-03T14:25:39.450Z,2.7
2019-05-03T14:31:05.191Z,2.5
2019-05-03T14:36:28.400Z,2.3
2019-05-03T14:41:52.064Z,2.3
2019-05-03T14:47:15.410Z,2.2
2019-05-03T14:52:38.938Z,2.3
2019-05-03T14:58:01.648Z,2.3
2019-05-03T15:03:24.698Z,2.1
2019-05-03T15:08:46.918Z,2.3
2019-05-03T15:14:10.562Z,1.9
2019-05-03T15:19:34.868Z,2
2019-05-03T15:24:56.883Z,2
2019-05-03T15:30:19.509Z,2.2
2019-05-03T15:35:44.281Z,2.2
2019-05-03T15:41:05.971Z,2.2
2019-05-03T15:46:28.539Z,2.2
2019-05-03T15:51:51.838Z,2.9
2019-05-03T15:57:14.440Z,2.9
2019-05-03T16:02:37.261Z,2.4
2019-05-03T16:07:59.898Z,2.2
2019-05-03T16:13:22.480Z,2.3
2019-05-03T16:18:45.211Z,2
2019-05-03T16:24:08.000Z,2
2019-05-03T16:29:31.177Z,2.2
2019-05-03T16:34:54.966Z,2.2
2019-05-03T16:40:17.459Z,2.3
2019-05-03T16:45:40.149Z,2.3
2019-05-03T16:51:02.741Z,2.7
2019-05-03T16:56:25.376Z,2.3
2019-05-03T17:01:47.942Z,2.4
2019-05-03T17:07:10.622Z,1.8
2019-05-03T17:12:34.783Z,2.3
2019-05-03T17:17:56.893Z,2.4
2019-05-03T17:23:19.495Z,2.5
2019-05-03T17:28:42.155Z,2.3
2019-05-03T17:34:05.511Z,2.5
2019-05-03T17:39:27.396Z,2.2
2019-05-03T17:44:50.025Z,2.7
2019-05-03T17:50:14.666Z,2.4
2019-05-03T17:55:36.243Z,2.6
2019-05-03T18:00:58.866Z,2.7
2019-05-03T18:06:21.636Z,2.5
2019-05-03T18:11:45.075Z,2.8
2019-05-03T18:17:07.031Z,2.4
2019-05-03T18:22:29.776Z,2
2019-05-03T18:27:52.376Z,2.2
2019-05-03T18:33:15.413Z,2.1
2019-05-03T18:38:40.469Z,2
2019-05-03T18:44:05.073Z,2.2
2019-05-03T18:49:27.293Z,2.4
2019-05-03T18:54:49.911Z,2.3
2019-05-03T19:00:12.525Z,2.4
2019-05-03T19:05:35.180Z,2.3
2019-05-03T19:10:57.860Z,2.8
2019-05-03T19:16:20.485Z,2.7
2019-05-03T19:21:44.404Z,2.4
2019-05-03T19:27:06.823Z,2.7
2019-05-03T19:32:30.426Z,2.3
2019-05-03T19:37:55.272Z,2.3
2019-05-03T19:43:17.011Z,2.1
2019-05-03T19:48:39.848Z,2.5
2019-05-03T19:54:02.488Z,2.4
2019-05-03T19:59:25.529Z,2.2
2019-05-03T20:04:57.529Z,1.7
2019-05-03T20:10:10.736Z,2.2
2019-05-03T20:15:33.368Z,1.8
2019-05-03T20:20:55.952Z,2.1
2019-05-03T20:26:18.582Z,1.9
2019-05-03T20:31:41.233Z,1.7
2019-05-03T20:37:05.260Z,2.3
2019-05-03T20:42:27.885Z,2.8
2019-05-03T20:47:50.489Z,2.2
2019-05-03T20:53:13.548Z,2.3
2019-05-03T20:58:36.237Z,2.4
2019-05-03T21:03:59.913Z,2.7
2019-05-03T21:09:22.671Z,3
2019-05-03T21:14:45.404Z,3.1
2019-05-03T21:20:08.061Z,3.7
2019-05-03T21:25:30.687Z,3.1
2019-05-03T21:30:54.899Z,2.8
2019-05-03T21:36:18.535Z,3.6
2019-05-03T21:41:41.165Z,3
2019-05-03T21:47:04.705Z,3.2
2019-05-03T21:52:27.441Z,3
2019-05-03T21:57:50.798Z,3.3
2019-05-03T22:03:14.557Z,3.4
2019-05-03T22:08:37.102Z,3.4
2019-05-03T22:14:01.580Z,3.3
2019-05-03T22:19:24.980Z,3.5
2019-05-03T22:24:46.921Z,3.4
2019-05-03T22:30:10.042Z,3.5
2019-05-03T22:35:35.089Z,4
2019-05-03T22:40:57.638Z,3.9
2019-05-03T22:46:20.354Z,4.2
2019-05-03T22:51:44.992Z,4.1
2019-05-03T22:57:06.631Z,4.6
2019-05-03T23:02:29.231Z,4.1
2019-05-03T23:07:51.854Z,4.2
2019-05-03T23:13:15.384Z,5
2019-05-03T23:18:37.170Z,4.9
2019-05-03T23:24:00.639Z,5.1
2019-05-03T23:29:24.308Z,5
2019-05-03T23:34:46.905Z,5.3
2019-05-03T23:40:09.587Z,5.2
2019-05-03T23:45:34.757Z,5.5
2019-05-03T23:50:57.362Z,5.7
2019-05-03T23:56:20.050Z,5.4
